Time;durP1;ratioP1;P1;durP2;ratioP2;P2;SDS_P1;SDS_P2;PMS_P1;PMS_P2;Temp;Humidity;BMP_temperature;BMP_pressure;BME280_temperature;BME280_humidity;BME280_pressure;Samples;Min_cycle;Max_cycle;Signal;HPM_P1;HPM_P2
2023/07/10 00:04:50;;;;;;;;;;;;;;;24.14;43.78;96055.22;10387253;28;2096;-66
2023/07/10 00:09:50;;;;;;;;;;;;;;;24.13;43.82;96053.63;10395839;28;2218;-67
2023/07/10 00:14:50;;;;;;;;;;;;;;;24.12;43.93;96046.78;10397926;28;2180;-65
2023/07/10 00:19:51;;;;;;;;;;;;;;;24.13;43.95;96047.56;10379432;28;2018;-65
2023/07/10 00:24:51;;;;;;;;;;;;;;;24.10;43.74;96051.56;10398376;28;2101;-65
2023/07/10 00:29:51;;;;;;;;;;;;;;;24.10;43.85;96043.63;10396551;28;2107;-65
2023/07/10 00:34:52;;;;;;;;;;;;;;;24.08;43.76;96051.06;10395585;28;2031;-65
2023/07/10 00:39:52;;;;;;;;;;;;;;;24.07;43.90;96046.06;10397848;28;2169;-65
2023/07/10 00:44:53;;;;;;;;;;;;;;;24.02;43.79;96038.97;10403480;28;2012;-66
2023/07/10 00:50:09;;;;;;;;;;;;;;;24.04;43.91;96044.00;10403556;28;2039;-66
2023/07/10 00:55:23;;;;;;;;;;;;;;;24.01;44.15;96045.31;10402563;28;2015;-65
2023/07/10 01:00:23;;;;;;;;;;;;;;;24.00;43.89;96038.47;10405035;28;2086;-65
2023/07/10 01:05:23;;;;;;;;;;;;;;;23.97;44.09;96036.38;10403945;28;2118;-65
2023/07/10 01:10:24;;;;;;;;;;;;;;;23.97;44.07;96033.72;10402959;28;2560;-66
2023/07/10 01:15:24;;;;;;;;;;;;;;;23.95;44.34;96033.22;10400841;28;1964;-66
2023/07/10 01:20:44;;;;;;;;;;;;;;;23.92;44.25;96025.88;10405173;28;2144;-66
2023/07/10 01:25:50;;;;;;;;;;;;;;;23.89;44.31;96023.78;10403477;28;2487;-68
2023/07/10 01:30:51;;;;;;;;;;;;;;;23.88;44.25;96019.59;10411777;28;2095;-67
2023/07/10 01:35:53;;;;;;;;;;;;;;;23.86;44.25;96018.28;10402179;28;1988;-68
2023/07/10 01:40:54;;;;;;;;;;;;;;;23.84;44.53;96010.66;10385711;28;4451;-67
2023/07/10 01:45:54;;;;;;;;;;;;;;;23.82;44.22;95996.13;10398822;28;1967;-66
2023/07/10 01:50:54;;;;;;;;;;;;;;;23.79;44.06;96000.13;10403013;28;2141;-66
2023/07/10 01:55:54;;;;;;;;;;;;;;;23.79;44.29;96002.78;10401424;28;2003;-67
2023/07/10 02:00:55;;;;;;;;;;;;;;;23.73;44.25;96011.84;10402569;28;2032;-68
2023/07/10 02:05:55;;;;;;;;;;;;;;;23.72;44.26;96020.84;10397203;28;2273;-67
2023/07/10 02:10:55;;;;;;;;;;;;;;;23.72;44.45;96022.75;10400690;28;2226;-67
2023/07/10 02:15:55;;;;;;;;;;;;;;;23.70;44.38;96033.59;10400480;28;2021;-68
2023/07/10 02:20:56;;;;;;;;;;;;;;;23.68;44.37;96038.38;10386902;28;2023;-67
2023/07/10 02:25:56;;;;;;;;;;;;;;;23.69;44.44;96052.41;10402673;28;2038;-67
2023/07/10 02:30:56;;;;;;;;;;;;;;;23.72;44.34;96062.44;10403711;28;1965;-67
2023/07/10 02:35:56;;;;;;;;;;;;;;;23.72;44.48;96067.75;10400132;28;1988;-67
2023/07/10 02:40:57;;;;;;;;;;;;;;;23.70;44.52;96060.06;10402182;28;4454;-67
2023/07/10 02:45:57;;;;;;;;;;;;;;;23.70;44.72;96061.94;10398613;28;2093;-67
2023/07/10 02:50:58;;;;;;;;;;;;;;;23.68;44.57;96056.91;10402395;28;1947;-66
2023/07/10 02:55:58;;;;;;;;;;;;;;;23.70;44.69;96056.66;10383092;28;2036;-67
2023/07/10 03:00:59;;;;;;;;;;;;;;;23.67;44.40;96039.47;10394617;28;2334;-67
2023/07/10 03:05:59;;;;;;;;;;;;;;;23.68;44.58;96032.31;10399372;28;2034;-67
2023/07/10 03:11:06;;;;;;;;;;;;;;;23.66;44.60;96032.59;10399802;28;2056;-67
2023/07/10 03:16:07;;;;;;;;;;;;;;;23.67;44.41;96020.94;10399908;28;2044;-66
2023/07/10 03:21:08;;;;;;;;;;;;;;;23.67;44.70;96017.50;10382428;28;2102;-66
2023/07/10 03:26:08;;;;;;;;;;;;;;;23.64;44.79;96016.22;10384310;28;2069;-67
2023/07/10 03:31:08;;;;;;;;;;;;;;;23.63;44.58;96027.09;10400901;28;2017;-66
2023/07/10 03:36:08;;;;;;;;;;;;;;;23.61;44.41;96024.75;10395205;28;2092;-66
2023/07/10 03:41:09;;;;;;;;;;;;;;;23.59;44.55;96018.94;10392931;28;4537;-66
2023/07/10 03:46:09;;;;;;;;;;;;;;;23.55;44.43;96025.88;10393839;28;2054;-66
2023/07/10 03:51:10;;;;;;;;;;;;;;;23.56;44.30;96032.72;10403056;28;2008;-66
2023/07/10 03:56:10;;;;;;;;;;;;;;;23.54;44.57;96034.88;10395540;28;1983;-66
2023/07/10 04:01:10;;;;;;;;;;;;;;;23.53;44.29;96027.25;10398146;28;2023;-66
2023/07/10 04:06:12;;;;;;;;;;;;;;;23.48;44.31;96036.03;10396878;28;2043;-67
2023/07/10 04:11:13;;;;;;;;;;;;;;;23.49;44.38;96039.47;10400576;28;1983;-66
2023/07/10 04:16:17;;;;;;;;;;;;;;;23.49;44.40;96045.53;10377654;28;1909;-66
2023/07/10 04:21:20;;;;;;;;;;;;;;;23.51;44.53;96046.06;10395446;28;2051;-67
2023/07/10 04:26:21;;;;;;;;;;;;;;;23.50;44.61;96038.38;10396947;28;2197;-66
2023/07/10 04:31:21;;;;;;;;;;;;;;;23.53;44.53;96041.25;10405287;28;2066;-65
2023/07/10 04:36:21;;;;;;;;;;;;;;;23.55;44.44;96030.38;10396454;28;1910;-65
2023/07/10 04:41:22;;;;;;;;;;;;;;;23.58;44.47;96040.38;10397679;28;4482;-66
2023/07/10 04:46:22;;;;;;;;;;;;;;;23.56;44.52;96053.91;10380333;28;1909;-66
2023/07/10 04:51:22;;;;;;;;;;;;;;;23.58;44.25;96041.19;10400469;28;1983;-65
2023/07/10 04:56:23;;;;;;;;;;;;;;;23.61;44.41;96051.19;10394087;28;2350;-65
2023/07/10 05:01:24;;;;;;;;;;;;;;;23.62;44.15;96058.06;10397968;28;1894;-66
2023/07/10 05:06:24;;;;;;;;;;;;;;;23.65;44.47;96046.13;10395374;28;1878;-65
2023/07/10 05:11:25;;;;;;;;;;;;;;;23.67;44.55;96055.34;10379783;28;1984;-67
2023/07/10 05:16:25;;;;;;;;;;;;;;;23.70;44.54;96043.41;10394261;28;1977;-65
2023/07/10 05:21:26;;;;;;;;;;;;;;;23.72;44.44;96057.91;10400622;28;1943;-65
2023/07/10 05:26:26;;;;;;;;;;;;;;;23.74;44.46;96061.06;10397233;28;1926;-66
2023/07/10 05:31:26;;;;;;;;;;;;;;;23.76;44.64;96074.03;10401127;28;1911;-65
2023/07/10 05:36:26;;;;;;;;;;;;;;;23.80;44.49;96073.16;10385401;28;1954;-65
2023/07/10 05:41:27;;;;;;;;;;;;;;;23.83;44.61;96069.94;10402234;28;4627;-65
2023/07/10 05:46:27;;;;;;;;;;;;;;;23.88;44.62;96067.25;10400988;28;1946;-65
2023/07/10 05:51:28;;;;;;;;;;;;;;;23.91;44.70;96066.66;10403537;28;2239;-65
2023/07/10 05:56:28;;;;;;;;;;;;;;;23.94;44.55;96052.84;10404610;28;2060;-65
2023/07/10 06:01:28;;;;;;;;;;;;;;;23.99;44.74;96059.91;10402139;28;1913;-63
2023/07/10 06:06:28;;;;;;;;;;;;;;;24.01;44.92;96069.16;10383132;28;1909;-63
2023/07/10 06:11:28;;;;;;;;;;;;;;;24.04;44.83;96089.81;10391744;28;1946;-64
2023/07/10 06:16:29;;;;;;;;;;;;;;;24.09;44.65;96095.00;10396183;28;2048;-62
2023/07/10 06:21:29;;;;;;;;;;;;;;;24.12;44.35;96114.84;10390034;28;2216;-67
2023/07/10 06:26:29;;;;;;;;;;;;;;;24.14;44.61;96113.50;10397507;28;1878;-66
2023/07/10 06:31:30;;;;;;;;;;;;;;;24.18;44.71;96119.78;10389906;28;2020;-63
2023/07/10 06:36:30;;;;;;;;;;;;;;;24.19;44.88;96129.28;10385164;28;1849;-65
2023/07/10 06:41:30;;;;;;;;;;;;;;;24.22;44.93;96130.59;10382620;28;2029;-65
2023/07/10 06:46:31;;;;;;;;;;;;;;;24.25;45.03;96136.09;10382302;28;1954;-65
2023/07/10 06:51:31;;;;;;;;;;;;;;;24.27;45.06;96127.09;10381247;28;1937;-64
2023/07/10 06:56:31;;;;;;;;;;;;;;;24.29;45.13;96115.13;10381880;28;1953;-65
2023/07/10 07:01:32;;;;;;;;;;;;;;;24.32;45.28;96108.47;10381727;28;1886;-65
2023/07/10 07:06:32;;;;;;;;;;;;;;;24.35;45.53;96118.47;10364465;28;2021;-64
2023/07/10 07:11:32;;;;;;;;;;;;;;;24.36;45.40;96138.63;10386619;28;2055;-65
2023/07/10 07:16:32;;;;;;;;;;;;;;;24.37;45.55;96137.53;10383276;28;1889;-64
2023/07/10 07:21:33;;;;;;;;;;;;;;;24.39;45.37;96127.41;10382144;28;1976;-65
2023/07/10 07:26:33;;;;;;;;;;;;;;;24.40;45.50;96148.31;10381929;28;1975;-63
2023/07/10 07:31:33;;;;;;;;;;;;;;;24.41;45.57;96165.00;10382216;28;1948;-63
2023/07/10 07:36:34;;;;;;;;;;;;;;;24.42;45.72;96161.31;10379691;28;1949;-64
2023/07/10 07:41:34;;;;;;;;;;;;;;;24.44;45.59;96159.16;10387854;28;4589;-69
2023/07/10 07:46:34;;;;;;;;;;;;;;;24.45;45.69;96197.81;10382165;28;1976;-65
2023/07/10 07:51:36;;;;;;;;;;;;;;;24.45;45.73;96200.47;10385368;28;2000;-66
2023/07/10 07:56:36;;;;;;;;;;;;;;;24.46;45.75;96194.88;10381822;28;1874;-67
2023/07/10 08:01:37;;;;;;;;;;;;;;;24.48;45.73;96189.31;10381541;28;2067;-65
2023/07/10 08:06:37;;;;;;;;;;;;;;;24.49;45.83;96209.41;10382645;28;1951;-64
2023/07/10 08:11:37;;;;;;;;;;;;;;;24.50;45.79;96225.06;10383163;28;2001;-62
2023/07/10 08:16:38;;;;;;;;;;;;;;;24.50;45.74;96218.94;10362320;28;1905;-62
2023/07/10 08:21:38;;;;;;;;;;;;;;;24.52;45.94;96225.56;10368302;28;1928;-62
2023/07/10 08:26:38;;;;;;;;;;;;;;;24.54;45.76;96238.50;10382319;28;2074;-64
2023/07/10 08:31:38;;;;;;;;;;;;;;;24.56;45.72;96255.72;10382471;28;1976;-63
2023/07/10 08:36:39;;;;;;;;;;;;;;;24.77;45.50;96307.38;10384659;28;1997;-63
2023/07/10 08:41:40;;;;;;;;;;;;;;;24.91;45.23;96312.75;10380564;28;4643;-66
2023/07/10 08:46:40;;;;;;;;;;;;;;;25.03;45.22;96331.69;10366776;28;1908;-64
2023/07/10 08:51:57;;;;;;;;;;;;;;;25.12;44.89;96348.53;10381884;28;1973;-63
2023/07/10 08:56:58;;;;;;;;;;;;;;;25.21;44.56;96344.13;10362081;28;2059;-63
2023/07/10 09:01:58;;;;;;;;;;;;;;;25.28;44.30;96333.94;10387005;28;1956;-63
2023/07/10 09:06:59;;;;;;;;;;;;;;;25.35;44.21;96334.34;10370760;28;1946;-65
2023/07/10 09:12:02;;;;;;;;;;;;;;;25.41;43.88;96305.91;10378428;28;2019;-65
2023/07/10 09:17:02;;;;;;;;;;;;;;;25.46;43.95;96269.44;10390814;28;1890;-65
2023/07/10 09:22:02;;;;;;;;;;;;;;;25.49;43.57;96268.09;10390842;28;1898;-65
2023/07/10 09:27:07;;;;;;;;;;;;;;;25.51;43.67;96290.59;10370058;28;1932;-67
2023/07/10 09:32:10;;;;;;;;;;;;;;;25.50;44.22;96261.69;10389109;28;2016;-64
2023/07/10 09:37:12;;;;;;;;;;;;;;;25.40;47.30;96224.69;10391101;28;2304;-67
2023/07/10 09:42:16;;;;;;;;;;;;;;;25.44;48.04;96252.25;10391661;28;4478;-65
2023/07/10 09:47:16;;;;;;;;;;;;;;;25.56;48.65;96223.34;10389193;28;2082;-63
2023/07/10 09:52:37;;;;;;;;;;;;;;;25.50;49.42;96193.47;10388857;28;1976;-64
2023/07/10 09:57:49;;;;;;;;;;;;;;;25.51;50.08;96197.69;10390560;28;1949;-63
2023/07/10 10:02:56;;;;;;;;;;;;;;;25.65;49.87;96201.16;10387302;28;2079;-62
2023/07/10 10:08:01;;;;;;;;;;;;;;;25.66;49.89;96213.31;10391544;28;2203;-63
2023/07/10 10:13:30;;;;;;;;;;;;;;;25.64;50.59;96215.50;10398144;28;2186;-63
2023/07/10 10:18:50;;;;;;;;;;;;;;;25.55;50.57;96224.44;10360702;28;1963;-64
2023/07/10 10:23:51;;;;;;;;;;;;;;;25.46;50.60;96231.50;10396294;28;1910;-63
2023/07/10 10:29:07;;;;;;;;;;;;;;;25.38;51.54;96237.44;10398191;28;1973;-65
2023/07/10 10:34:28;;;;;;;;;;;;;;;25.36;50.86;96240.41;10396565;28;2588;-64
2023/07/10 10:39:36;;;;;;;;;;;;;;;25.35;51.06;96235.41;10396232;28;2176;-65
2023/07/10 10:44:48;;;;;;;;;;;;;;;25.34;50.96;96242.56;10378875;28;4658;-67
2023/07/10 10:50:01;;;;;;;;;;;;;;;25.36;51.67;96266.94;10396549;28;1901;-62
2023/07/10 10:55:07;;;;;;;;;;;;;;;25.39;52.06;96263.69;10396502;28;1985;-63
2023/07/10 11:00:13;;;;;;;;;;;;;;;25.42;52.05;96257.84;10396579;28;1896;-65
2023/07/10 11:05:17;;;;;;;;;;;;;;;25.42;52.40;96249.09;10394385;28;1893;-65
2023/07/10 11:10:43;;;;;;;;;;;;;;;25.45;52.56;96248.53;10381094;28;1914;-65
2023/07/10 11:15:44;;;;;;;;;;;;;;;25.47;52.30;96247.13;10388753;28;2005;-66
2023/07/10 11:20:44;;;;;;;;;;;;;;;25.49;51.70;96229.03;10389032;28;1985;-68
2023/07/10 11:25:44;;;;;;;;;;;;;;;25.51;50.43;96226.88;10382691;28;2297;-66
2023/07/10 11:30:44;;;;;;;;;;;;;;;25.57;48.44;96215.09;10368009;28;2130;-65
2023/07/10 11:36:03;;;;;;;;;;;;;;;25.58;47.41;96198.09;10382330;28;1934;-65
2023/07/10 11:41:08;;;;;;;;;;;;;;;25.65;47.38;96189.72;10383770;28;4510;-65
2023/07/10 11:46:16;;;;;;;;;;;;;;;25.48;48.44;96184.22;10380359;28;2090;-65
2023/07/10 11:51:24;;;;;;;;;;;;;;;25.42;48.55;96180.09;10386682;28;1963;-65
2023/07/10 11:56:24;;;;;;;;;;;;;;;25.39;48.64;96170.81;10384759;28;1918;-65
2023/07/10 12:01:25;;;;;;;;;;;;;;;25.37;48.80;96159.69;10389946;28;1901;-66
2023/07/10 12:06:26;;;;;;;;;;;;;;;25.36;48.45;96158.13;10394292;28;1966;-65
2023/07/10 12:11:32;;;;;;;;;;;;;;;25.33;48.58;96145.44;10396120;28;1926;-65
2023/07/10 12:16:33;;;;;;;;;;;;;;;25.32;48.28;96138.56;10391708;28;1944;-65
2023/07/10 12:21:34;;;;;;;;;;;;;;;25.30;48.06;96131.97;10376168;28;1942;-65
2023/07/10 12:26:34;;;;;;;;;;;;;;;25.29;47.99;96128.53;10394041;28;2268;-66
2023/07/10 12:31:35;;;;;;;;;;;;;;;25.30;48.12;96124.81;10393361;28;1975;-66
2023/07/10 12:36:37;;;;;;;;;;;;;;;25.30;48.05;96131.97;10390664;28;1950;-66
2023/07/10 12:41:37;;;;;;;;;;;;;;;25.28;48.13;96132.28;10381784;28;4450;-65
2023/07/10 12:46:38;;;;;;;;;;;;;;;25.29;48.02;96122.44;10389510;28;1886;-64
2023/07/10 12:51:38;;;;;;;;;;;;;;;25.28;47.85;96116.38;10389847;28;2093;-65
2023/07/10 12:56:39;;;;;;;;;;;;;;;25.29;48.27;96109.97;10389831;28;1886;-64
2023/07/10 13:01:45;;;;;;;;;;;;;;;25.28;48.38;96111.06;10390494;28;1875;-63
2023/07/10 13:06:46;;;;;;;;;;;;;;;25.29;48.24;96109.16;10389607;28;1945;-64
2023/07/10 13:11:46;;;;;;;;;;;;;;;25.29;48.29;96102.00;10391725;28;1961;-64
2023/07/10 13:16:46;;;;;;;;;;;;;;;25.29;48.31;96096.69;10375449;28;2129;-63
2023/07/10 13:21:46;;;;;;;;;;;;;;;25.29;48.18;96085.28;10392304;28;1961;-64
2023/07/10 13:26:50;;;;;;;;;;;;;;;25.29;48.14;96079.97;10390223;28;1938;-64
2023/07/10 13:31:50;;;;;;;;;;;;;;;25.29;48.28;96075.47;10376791;28;1984;-63
2023/07/10 13:36:51;;;;;;;;;;;;;;;25.30;48.25;96079.72;10393254;28;1895;-65
2023/07/10 13:41:53;;;;;;;;;;;;;;;25.31;48.27;96077.81;10389995;28;4490;-65
2023/07/10 13:46:53;;;;;;;;;;;;;;;25.31;48.35;96070.66;10386261;28;1917;-64
2023/07/10 13:51:53;;;;;;;;;;;;;;;25.32;48.29;96074.09;10399509;28;1973;-64
2023/07/10 13:56:54;;;;;;;;;;;;;;;25.33;48.35;96071.13;10397530;28;1938;-66
2023/07/10 14:01:54;;;;;;;;;;;;;;;25.31;48.29;96068.00;10396728;28;2323;-64
2023/07/10 14:06:54;;;;;;;;;;;;;;;25.34;48.50;96071.94;10397887;28;1966;-63
2023/07/10 14:11:55;;;;;;;;;;;;;;;25.36;48.52;96062.59;10400558;28;2063;-64
2023/07/10 14:16:55;;;;;;;;;;;;;;;25.36;48.70;96048.53;10395021;28;2347;-65
2023/07/10 14:21:55;;;;;;;;;;;;;;;25.35;48.60;96053.06;10397177;28;2193;-65
2023/07/10 14:26:56;;;;;;;;;;;;;;;25.37;48.62;96048.25;10399652;28;2202;-65
2023/07/10 14:31:56;;;;;;;;;;;;;;;25.38;48.92;96041.84;10396179;28;2091;-64
2023/07/10 14:36:56;;;;;;;;;;;;;;;25.39;49.04;96035.44;10399530;28;1890;-65
2023/07/10 14:41:56;;;;;;;;;;;;;;;25.39;49.03;96022.19;10398700;28;4470;-65
2023/07/10 14:46:57;;;;;;;;;;;;;;;25.40;48.94;96021.13;10393024;28;2147;-65
2023/07/10 14:51:57;;;;;;;;;;;;;;;25.43;49.44;96027.75;10405475;28;2006;-66
2023/07/10 14:56:57;;;;;;;;;;;;;;;25.44;49.63;96019.47;10397276;28;2011;-65
2023/07/10 15:01:58;;;;;;;;;;;;;;;25.44;49.67;96011.50;10396798;28;1874;-65
2023/07/10 15:06:58;;;;;;;;;;;;;;;25.45;49.76;96015.72;10399843;28;2026;-66
2023/07/10 15:11:58;;;;;;;;;;;;;;;25.47;49.80;96015.44;10398827;28;2228;-65
2023/07/10 15:16:58;;;;;;;;;;;;;;;25.48;50.03;96006.38;10397563;28;1922;-65
2023/07/10 15:21:59;;;;;;;;;;;;;;;25.48;50.18;96003.72;10401359;28;1891;-66
2023/07/10 15:26:59;;;;;;;;;;;;;;;25.48;50.10;96007.16;10398658;28;1897;-66
2023/07/10 15:32:20;;;;;;;;;;;;;;;25.48;50.14;96001.88;10398175;28;1919;-65
2023/07/10 15:37:21;;;;;;;;;;;;;;;25.49;50.14;95995.44;10398343;28;2061;-66
2023/07/10 15:42:22;;;;;;;;;;;;;;;25.50;50.12;96002.34;10401249;28;1969;-66
2023/07/10 15:47:22;;;;;;;;;;;;;;;25.49;50.22;95990.16;10398774;28;2030;-66
2023/07/10 15:52:29;;;;;;;;;;;;;;;25.49;50.29;95995.44;10400467;28;1962;-66
2023/07/10 15:57:29;;;;;;;;;;;;;;;25.49;50.22;95995.44;10383651;28;1986;-66
2023/07/10 16:02:29;;;;;;;;;;;;;;;25.48;50.15;95991.25;10397411;28;2078;-66
2023/07/10 16:07:30;;;;;;;;;;;;;;;25.50;50.43;95994.38;10395369;28;2388;-65
2023/07/10 16:12:30;;;;;;;;;;;;;;;25.50;50.16;95991.72;10396528;28;2021;-66
2023/07/10 16:17:30;;;;;;;;;;;;;;;25.50;50.12;95986.44;10379904;28;2156;-66
2023/07/10 16:22:31;;;;;;;;;;;;;;;25.50;50.35;95977.66;10398016;28;1901;-66
2023/07/10 16:27:31;;;;;;;;;;;;;;;25.50;50.56;95982.97;10398057;28;1934;-65
2023/07/10 16:32:31;;;;;;;;;;;;;;;25.50;50.29;95990.94;10396105;28;1960;-65
2023/07/10 16:37:31;;;;;;;;;;;;;;;25.50;50.34;95991.72;10393400;28;1876;-65
2023/07/10 16:42:32;;;;;;;;;;;;;;;25.51;50.36;95982.66;10395782;28;4356;-65
2023/07/10 16:47:32;;;;;;;;;;;;;;;25.51;50.45;95987.97;10394890;28;1975;-66
2023/07/10 16:52:32;;;;;;;;;;;;;;;25.51;50.28;95990.63;10397431;28;2019;-66
2023/07/10 16:57:32;;;;;;;;;;;;;;;25.51;50.22;95990.63;10395012;28;1968;-65
2023/07/10 17:02:33;;;;;;;;;;;;;;;25.51;50.43;95987.97;10396175;28;1973;-65
2023/07/10 17:07:33;;;;;;;;;;;;;;;25.53;50.39;95996.44;10391392;28;2245;-65
2023/07/10 17:12:34;;;;;;;;;;;;;;;25.51;50.38;95990.63;10394295;28;1962;-65
2023/07/10 17:17:35;;;;;;;;;;;;;;;25.53;50.53;95993.00;10378494;28;1978;-66
2023/07/10 17:22:35;;;;;;;;;;;;;;;25.53;50.30;95991.13;10397271;28;1966;-65
2023/07/10 17:27:35;;;;;;;;;;;;;;;25.53;50.47;95985.81;10404310;28;1985;-65
2023/07/10 17:32:36;;;;;;;;;;;;;;;25.54;50.47;95986.59;10401392;28;2470;-65
2023/07/10 17:37:36;;;;;;;;;;;;;;;25.54;50.74;95987.41;10403880;28;1894;-66
2023/07/10 17:42:36;;;;;;;;;;;;;;;25.55;50.54;95993.50;10405165;28;4308;-66
2023/07/10 17:47:36;;;;;;;;;;;;;;;25.55;50.45;95996.16;10384818;28;1930;-65
2023/07/10 17:52:37;;;;;;;;;;;;;;;25.56;50.49;95989.75;10403906;28;2076;-65
2023/07/10 17:57:37;;;;;;;;;;;;;;;25.55;50.61;95986.31;10409809;28;1948;-65
2023/07/10 18:02:39;;;;;;;;;;;;;;;25.55;50.50;95988.19;10390803;28;2351;-67
2023/07/10 18:07:39;;;;;;;;;;;;;;;25.56;50.62;95989.75;10378884;28;1973;-66
2023/07/10 18:12:39;;;;;;;;;;;;;;;25.57;50.55;95993.97;10393438;28;1999;-65
2023/07/10 18:17:39;;;;;;;;;;;;;;;25.60;50.43;95990.72;10376880;28;2145;-66
2023/07/10 18:22:40;;;;;;;;;;;;;;;25.65;50.52;96004.69;10397469;28;1948;-64
2023/07/10 18:27:40;;;;;;;;;;;;;;;25.68;50.44;96006.72;10406235;28;1936;-65
2023/07/10 18:32:41;;;;;;;;;;;;;;;25.73;50.35;96001.31;10399481;28;2014;-63
2023/07/10 18:37:41;;;;;;;;;;;;;;;25.78;50.42;95997.75;10387499;28;2093;-63
2023/07/10 18:42:41;;;;;;;;;;;;;;;25.79;50.38;96001.97;10394922;28;4378;-63
2023/07/10 18:47:42;;;;;;;;;;;;;;;25.80;50.36;96006.22;10398239;28;1918;-65
2023/07/10 18:52:42;;;;;;;;;;;;;;;25.80;50.54;96001.66;10400886;28;1931;-60
2023/07/10 18:57:42;;;;;;;;;;;;;;;25.80;50.42;96016.84;10401965;28;2219;-61
2023/07/10 19:02:43;;;;;;;;;;;;;;;25.79;50.60;96016.03;10396635;28;1883;-61
2023/07/10 19:07:43;;;;;;;;;;;;;;;25.78;50.59;96014.44;10398629;28;2055;-61
2023/07/10 19:12:43;;;;;;;;;;;;;;;25.78;50.64;96019.75;10396483;28;2047;-63
2023/07/10 19:17:43;;;;;;;;;;;;;;;25.76;50.44;96024.59;10394765;28;1893;-62
2023/07/10 19:22:44;;;;;;;;;;;;;;;25.77;50.33;96025.38;10373682;28;2120;-63
2023/07/10 19:27:44;;;;;;;;;;;;;;;25.75;50.26;96031.00;10397715;28;1985;-64
2023/07/10 19:32:44;;;;;;;;;;;;;;;25.75;50.50;96028.34;10398643;28;1879;-65
2023/07/10 19:37:44;;;;;;;;;;;;;;;25.75;50.26;96035.53;10399114;28;1902;-64
2023/07/10 19:42:45;;;;;;;;;;;;;;;25.75;50.37;96041.63;10400000;28;4561;-63
2023/07/10 19:47:45;;;;;;;;;;;;;;;25.75;50.19;96048.78;10397805;28;1953;-65
2023/07/10 19:52:45;;;;;;;;;;;;;;;25.74;50.28;96047.22;10400570;28;2289;-63
2023/07/10 19:57:48;;;;;;;;;;;;;;;25.74;50.33;96045.34;10394431;28;1883;-61
2023/07/10 20:02:49;;;;;;;;;;;;;;;25.73;50.24;96049.09;10396454;28;1902;-62
2023/07/10 20:07:49;;;;;;;;;;;;;;;25.73;50.23;96043.78;10395907;28;1918;-62
2023/07/10 20:12:50;;;;;;;;;;;;;;;25.72;50.11;96055.47;10396363;28;1965;-62
2023/07/10 20:17:50;;;;;;;;;;;;;;;25.71;50.08;96056.59;10394694;28;1933;-62
2023/07/10 20:22:51;;;;;;;;;;;;;;;25.71;49.92;96045.16;10381666;28;2252;-62
2023/07/10 20:27:51;;;;;;;;;;;;;;;25.70;50.10;96049.69;10395641;28;2018;-62
2023/07/10 20:32:51;;;;;;;;;;;;;;;25.70;49.99;96055.00;10391185;28;2127;-62
2023/07/10 20:37:51;;;;;;;;;;;;;;;25.70;50.03;96057.66;10379747;28;1993;-62
2023/07/10 20:42:52;;;;;;;;;;;;;;;25.70;50.07;96057.66;10395967;28;4614;-62
2023/07/10 20:47:52;;;;;;;;;;;;;;;25.70;50.07;96062.97;10395222;28;1972;-62
2023/07/10 20:52:52;;;;;;;;;;;;;;;25.70;49.55;96055.00;10377914;28;2328;-62
2023/07/10 20:57:53;;;;;;;;;;;;;;;25.68;48.92;96045.75;10395134;28;1968;-62
2023/07/10 21:02:53;;;;;;;;;;;;;;;25.64;47.78;96044.78;10403626;28;1925;-62
2023/07/10 21:07:53;;;;;;;;;;;;;;;25.58;46.86;96044.13;10402724;28;1913;-62
2023/07/10 21:12:54;;;;;;;;;;;;;;;25.53;45.97;96044.22;10406703;28;1939;-62
2023/07/10 21:17:54;;;;;;;;;;;;;;;25.51;45.39;96041.06;10401875;28;2112;-62
2023/07/10 21:22:55;;;;;;;;;;;;;;;25.47;44.98;96045.41;10407031;28;1930;-62
2023/07/10 21:27:55;;;;;;;;;;;;;;;25.44;44.51;96046.00;10384708;28;1949;-62
2023/07/10 21:32:56;;;;;;;;;;;;;;;25.44;45.00;96051.31;10399467;28;2035;-62
2023/07/10 21:37:56;;;;;;;;;;;;;;;25.43;45.45;96043.66;10404283;28;1937;-62
2023/07/10 21:42:57;;;;;;;;;;;;;;;25.42;45.59;96047.38;10405100;28;4637;-62
2023/07/10 21:47:59;;;;;;;;;;;;;;;25.42;45.73;96055.34;10402752;28;2285;-62
2023/07/10 21:52:59;;;;;;;;;;;;;;;25.41;45.85;96054.56;10401328;28;1890;-62
2023/07/10 21:57:59;;;;;;;;;;;;;;;25.41;45.52;96053.78;10401821;28;1898;-62
2023/07/10 22:03:00;;;;;;;;;;;;;;;25.40;45.76;96054.81;10404701;28;2026;-62
2023/07/10 22:08:00;;;;;;;;;;;;;;;25.38;45.33;96060.44;10402532;28;1953;-61
2023/07/10 22:13:00;;;;;;;;;;;;;;;25.39;45.10;96061.22;10381463;28;1932;-61
2023/07/10 22:18:01;;;;;;;;;;;;;;;25.36;45.43;96056.50;10397111;28;2058;-61
2023/07/10 22:23:01;;;;;;;;;;;;;;;25.34;45.54;96051.50;10401318;28;2006;-60
2023/07/10 22:28:01;;;;;;;;;;;;;;;25.34;45.56;96054.16;10402639;28;1986;-61
2023/07/10 22:33:01;;;;;;;;;;;;;;;25.32;45.59;96053.66;10402166;28;1919;-62
2023/07/10 22:38:03;;;;;;;;;;;;;;;25.31;45.67;96051.28;10403351;28;1966;-61
2023/07/10 22:43:03;;;;;;;;;;;;;;;25.32;45.79;96052.88;10403510;28;4498;-60
2023/07/10 22:48:04;;;;;;;;;;;;;;;25.30;45.88;96066.44;10403178;28;1972;-61
2023/07/10 22:53:04;;;;;;;;;;;;;;;25.30;45.93;96063.00;10402730;28;1935;-62
2023/07/10 22:58:05;;;;;;;;;;;;;;;25.28;45.74;96058.00;10385079;28;2045;-62
2023/07/10 23:03:05;;;;;;;;;;;;;;;25.25;45.49;96063.09;10400766;28;1957;-61
2023/07/10 23:08:06;;;;;;;;;;;;;;;25.25;45.51;96065.72;10384189;28;1968;-61
2023/07/10 23:13:06;;;;;;;;;;;;;;;25.26;45.58;96075.28;10400016;28;1935;-62
2023/07/10 23:18:07;;;;;;;;;;;;;;;25.24;45.62;96064.97;10400321;28;1971;-60
2023/07/10 23:23:08;;;;;;;;;;;;;;;25.25;45.35;96069.19;10410221;28;2090;-62
2023/07/10 23:28:10;;;;;;;;;;;;;;;25.25;45.36;96063.09;10399489;28;1977;-62
2023/07/10 23:33:11;;;;;;;;;;;;;;;25.21;45.25;96057.59;10384763;28;2025;-62
2023/07/10 23:38:12;;;;;;;;;;;;;;;25.22;45.23;96059.19;10399900;28;2414;-62
2023/07/10 23:43:12;;;;;;;;;;;;;;;25.22;45.22;96053.88;10404810;28;4608;-62
2023/07/10 23:48:12;;;;;;;;;;;;;;;25.21;45.11;96048.84;10398013;28;1946;-62
2023/07/10 23:53:13;;;;;;;;;;;;;;;25.20;45.16;96056.03;10398262;28;1943;-62
2023/07/10 23:58:13;;;;;;;;;;;;;;;25.19;45.08;96038.53;10399204;28;2054;-62
